sensor_id;sensor_type;location;lat;lon;timestamp;pressure;altitude;pressure_sealevel;temperature;humidity
14689;BME280;7432;48.728;9.154;2023-02-11T00:01:31;98532.59;;;-1.95;85.63
14689;BME280;7432;48.728;9.154;2023-02-11T00:03:58;98528.34;;;-1.93;84.96
14689;BME280;7432;48.728;9.154;2023-02-11T00:06:25;98528.41;;;-1.96;85.82
14689;BME280;7432;48.728;9.154;2023-02-11T00:08:55;98520.94;;;-2.01;85.47
14689;BME280;7432;48.728;9.154;2023-02-11T00:11:22;98527.44;;;-1.91;85.81
14689;BME280;7432;48.728;9.154;2023-02-11T00:13:50;98519.16;;;-1.96;85.70
14689;BME280;7432;48.728;9.154;2023-02-11T00:16:18;98518.25;;;-1.93;85.11
14689;BME280;7432;48.728;9.154;2023-02-11T00:18:45;98521.66;;;-1.96;85.32
14689;BME280;7432;48.728;9.154;2023-02-11T00:21:13;98526.72;;;-1.96;85.72
14689;BME280;7432;48.728;9.154;2023-02-11T00:23:40;98524.97;;;-1.92;85.73
14689;BME280;7432;48.728;9.154;2023-02-11T00:26:12;98520.75;;;-1.92;85.37
14689;BME280;7432;48.728;9.154;2023-02-11T00:28:39;98532.53;;;-1.92;85.42
14689;BME280;7432;48.728;9.154;2023-02-11T00:31:05;98531.75;;;-1.94;85.49
14689;BME280;7432;48.728;9.154;2023-02-11T00:33:31;98530.06;;;-1.95;85.31
14689;BME280;7432;48.728;9.154;2023-02-11T00:36:02;98527.56;;;-1.95;85.55
14689;BME280;7432;48.728;9.154;2023-02-11T00:38:29;98522.56;;;-1.98;86.63
14689;BME280;7432;48.728;9.154;2023-02-11T00:40:55;98520.03;;;-1.98;85.71
14689;BME280;7432;48.728;9.154;2023-02-11T00:43:23;98510.06;;;-2.03;86.33
14689;BME280;7432;48.728;9.154;2023-02-11T00:45:50;98507.59;;;-2.06;85.88
14689;BME280;7432;48.728;9.154;2023-02-11T00:48:16;98511.72;;;-2.02;85.73
14689;BME280;7432;48.728;9.154;2023-02-11T00:50:42;98504.06;;;-1.99;85.75
14689;BME280;7432;48.728;9.154;2023-02-11T00:53:09;98499.13;;;-2.03;85.45
14689;BME280;7432;48.728;9.154;2023-02-11T00:55:35;98505.03;;;-2.04;85.46
14689;BME280;7432;48.728;9.154;2023-02-11T00:58:02;98508.31;;;-2.01;85.36
14689;BME280;7432;48.728;9.154;2023-02-11T01:00:29;98504.19;;;-2.05;85.27
14689;BME280;7432;48.728;9.154;2023-02-11T01:02:56;98509.19;;;-2.02;84.93
14689;BME280;7432;48.728;9.154;2023-02-11T01:05:22;98509.25;;;-2.05;85.72
14689;BME280;7432;48.728;9.154;2023-02-11T01:07:48;98508.44;;;-2.05;85.69
14689;BME280;7432;48.728;9.154;2023-02-11T01:10:15;98505.16;;;-2.10;85.79
14689;BME280;7432;48.728;9.154;2023-02-11T01:12:42;98506.78;;;-2.06;85.58
14689;BME280;7432;48.728;9.154;2023-02-11T01:15:11;98495.91;;;-2.10;85.71
14689;BME280;7432;48.728;9.154;2023-02-11T01:17:40;98499.91;;;-2.01;85.24
14689;BME280;7432;48.728;9.154;2023-02-11T01:20:10;98493.38;;;-2.10;85.27
14689;BME280;7432;48.728;9.154;2023-02-11T01:22:37;98499.09;;;-2.02;85.39
14689;BME280;7432;48.728;9.154;2023-02-11T01:25:04;98484.06;;;-2.06;84.88
14689;BME280;7432;48.728;9.154;2023-02-11T01:27:31;98475.78;;;-2.13;85.60
14689;BME280;7432;48.728;9.154;2023-02-11T01:29:58;98475.81;;;-2.14;85.40
14689;BME280;7432;48.728;9.154;2023-02-11T01:32:24;98463.22;;;-2.14;85.44
14689;BME280;7432;48.728;9.154;2023-02-11T01:34:52;98469.94;;;-2.15;85.94
14689;BME280;7432;48.728;9.154;2023-02-11T01:37:18;98478.28;;;-2.11;85.85
14689;BME280;7432;48.728;9.154;2023-02-11T01:39:45;98468.25;;;-2.14;85.26
14689;BME280;7432;48.728;9.154;2023-02-11T01:42:15;98464.19;;;-2.20;85.88
14689;BME280;7432;48.728;9.154;2023-02-11T01:44:41;98463.38;;;-2.22;86.46
14689;BME280;7432;48.728;9.154;2023-02-11T01:47:08;98470.06;;;-2.19;85.68
14689;BME280;7432;48.728;9.154;2023-02-11T01:49:37;98464.06;;;-2.14;85.44
14689;BME280;7432;48.728;9.154;2023-02-11T01:52:09;98450.84;;;-2.26;85.20
14689;BME280;7432;48.728;9.154;2023-02-11T01:54:40;98459.25;;;-2.26;86.02
14689;BME280;7432;48.728;9.154;2023-02-11T01:57:29;98467.50;;;-2.18;85.66
14689;BME280;7432;48.728;9.154;2023-02-11T02:00:03;98468.44;;;-2.23;86.13
14689;BME280;7432;48.728;9.154;2023-02-11T02:02:33;98454.88;;;-2.18;85.77
14689;BME280;7432;48.728;9.154;2023-02-11T02:05:07;98451.44;;;-2.14;85.04
14689;BME280;7432;48.728;9.154;2023-02-11T02:07:41;98453.31;;;-2.22;85.66
14689;BME280;7432;48.728;9.154;2023-02-11T02:10:15;98457.53;;;-2.24;85.78
14689;BME280;7432;48.728;9.154;2023-02-11T02:12:42;98460.09;;;-2.25;85.62
14689;BME280;7432;48.728;9.154;2023-02-11T02:15:20;98454.19;;;-2.24;85.69
14689;BME280;7432;48.728;9.154;2023-02-11T02:17:54;98441.53;;;-2.21;85.72
14689;BME280;7432;48.728;9.154;2023-02-11T02:20:36;98444.06;;;-2.23;86.04
14689;BME280;7432;48.728;9.154;2023-02-11T02:23:18;98444.00;;;-2.20;85.13
14689;BME280;7432;48.728;9.154;2023-02-11T02:26:15;98441.41;;;-2.18;85.35
14689;BME280;7432;48.728;9.154;2023-02-11T02:29:05;98447.31;;;-2.18;85.53
14689;BME280;7432;48.728;9.154;2023-02-11T02:31:47;98443.94;;;-2.18;86.24
14689;BME280;7432;48.728;9.154;2023-02-11T02:34:25;98431.06;;;-2.06;85.39
14689;BME280;7432;48.728;9.154;2023-02-11T02:36:59;98424.34;;;-2.07;85.39
14689;BME280;7432;48.728;9.154;2023-02-11T02:39:30;98422.78;;;-2.13;84.97
14689;BME280;7432;48.728;9.154;2023-02-11T02:41:58;98415.78;;;-2.00;84.86
14689;BME280;7432;48.728;9.154;2023-02-11T02:44:25;98422.47;;;-1.99;85.05
14689;BME280;7432;48.728;9.154;2023-02-11T02:46:51;98420.78;;;-1.97;84.98
14689;BME280;7432;48.728;9.154;2023-02-11T02:49:18;98425.91;;;-2.02;85.03
14689;BME280;7432;48.728;9.154;2023-02-11T02:52:00;98424.22;;;-2.01;85.08
14689;BME280;7432;48.728;9.154;2023-02-11T02:54:43;98419.34;;;-2.09;85.11
14689;BME280;7432;48.728;9.154;2023-02-11T02:57:26;98420.78;;;-1.99;85.08
14689;BME280;7432;48.728;9.154;2023-02-11T03:00:04;98409.13;;;-2.03;85.14
14689;BME280;7432;48.728;9.154;2023-02-11T03:02:39;98405.63;;;-1.97;84.34
14689;BME280;7432;48.728;9.154;2023-02-11T03:05:10;98409.91;;;-2.01;85.28
14689;BME280;7432;48.728;9.154;2023-02-11T03:07:45;98407.31;;;-1.98;84.92
14689;BME280;7432;48.728;9.154;2023-02-11T03:10:16;98403.19;;;-2.00;85.12
14689;BME280;7432;48.728;9.154;2023-02-11T03:12:46;98401.50;;;-2.01;85.18
14689;BME280;7432;48.728;9.154;2023-02-11T03:15:13;98387.34;;;-2.07;84.80
14689;BME280;7432;48.728;9.154;2023-02-11T03:17:45;98394.00;;;-2.04;84.87
14689;BME280;7432;48.728;9.154;2023-02-11T03:20:15;98398.97;;;-2.01;85.54
14689;BME280;7432;48.728;9.154;2023-02-11T03:22:47;98408.09;;;-1.94;85.12
14689;BME280;7432;48.728;9.154;2023-02-11T03:25:14;98396.53;;;-2.04;85.28
14689;BME280;7432;48.728;9.154;2023-02-11T03:27:45;98397.09;;;-1.93;84.67
14689;BME280;7432;48.728;9.154;2023-02-11T03:30:15;98395.41;;;-1.93;84.70
14689;BME280;7432;48.728;9.154;2023-02-11T03:32:49;98397.16;;;-1.96;84.52
14689;BME280;7432;48.728;9.154;2023-02-11T03:35:19;98397.22;;;-1.98;85.54
14689;BME280;7432;48.728;9.154;2023-02-11T03:37:51;98388.94;;;-2.03;84.70
14689;BME280;7432;48.728;9.154;2023-02-11T03:40:21;98389.66;;;-1.98;84.89
14689;BME280;7432;48.728;9.154;2023-02-11T03:42:51;98387.25;;;-2.02;85.22
14689;BME280;7432;48.728;9.154;2023-02-11T03:45:22;98395.63;;;-2.02;85.19
14689;BME280;7432;48.728;9.154;2023-02-11T03:47:52;98399.88;;;-2.04;84.70
14689;BME280;7432;48.728;9.154;2023-02-11T03:50:21;98403.38;;;-2.08;84.75
14689;BME280;7432;48.728;9.154;2023-02-11T03:52:50;98395.88;;;-2.12;84.91
14689;BME280;7432;48.728;9.154;2023-02-11T03:55:18;98394.38;;;-2.19;85.87
14689;BME280;7432;48.728;9.154;2023-02-11T03:57:46;98396.72;;;-2.12;85.99
14689;BME280;7432;48.728;9.154;2023-02-11T04:00:13;98400.00;;;-2.08;85.82
14689;BME280;7432;48.728;9.154;2023-02-11T04:02:41;98400.09;;;-2.13;86.00
14689;BME280;7432;48.728;9.154;2023-02-11T04:05:09;98398.34;;;-2.09;86.06
14689;BME280;7432;48.728;9.154;2023-02-11T04:07:36;98388.88;;;-2.01;85.60
14689;BME280;7432;48.728;9.154;2023-02-11T04:10:04;98383.69;;;-1.95;85.41
14689;BME280;7432;48.728;9.154;2023-02-11T04:12:31;98385.31;;;-1.93;85.58
14689;BME280;7432;48.728;9.154;2023-02-11T04:14:57;98396.00;;;-1.83;85.45
14689;BME280;7432;48.728;9.154;2023-02-11T04:17:24;98409.47;;;-1.83;85.38
14689;BME280;7432;48.728;9.154;2023-02-11T04:19:50;98402.88;;;-1.88;85.66
14689;BME280;7432;48.728;9.154;2023-02-11T04:22:16;98415.41;;;-1.85;85.91
14689;BME280;7432;48.728;9.154;2023-02-11T04:24:43;98417.88;;;-1.82;85.68
14689;BME280;7432;48.728;9.154;2023-02-11T04:27:10;98421.19;;;-1.80;86.31
14689;BME280;7432;48.728;9.154;2023-02-11T04:29:37;98430.16;;;-1.68;85.57
14689;BME280;7432;48.728;9.154;2023-02-11T04:32:03;98424.19;;;-1.64;85.97
14689;BME280;7432;48.728;9.154;2023-02-11T04:34:30;98425.59;;;-1.54;85.38
14689;BME280;7432;48.728;9.154;2023-02-11T04:36:56;98418.56;;;-1.43;84.85
14689;BME280;7432;48.728;9.154;2023-02-11T04:39:22;98414.84;;;-1.29;84.44
14689;BME280;7432;48.728;9.154;2023-02-11T04:41:49;98420.75;;;-1.30;84.03
14689;BME280;7432;48.728;9.154;2023-02-11T04:44:16;98415.47;;;-1.22;84.49
14689;BME280;7432;48.728;9.154;2023-02-11T04:46:43;98408.53;;;-1.14;83.95
14689;BME280;7432;48.728;9.154;2023-02-11T04:49:11;98401.84;;;-1.15;83.49
14689;BME280;7432;48.728;9.154;2023-02-11T04:51:38;98412.59;;;-1.08;84.01
14689;BME280;7432;48.728;9.154;2023-02-11T04:54:05;98410.06;;;-1.08;84.09
14689;BME280;7432;48.728;9.154;2023-02-11T04:56:31;98399.16;;;-1.10;84.36
14689;BME280;7432;48.728;9.154;2023-02-11T04:58:58;98400.53;;;-0.99;83.95
14689;BME280;7432;48.728;9.154;2023-02-11T05:01:25;98397.19;;;-0.99;84.18
14689;BME280;7432;48.728;9.154;2023-02-11T05:03:52;98399.72;;;-0.99;84.31
14689;BME280;7432;48.728;9.154;2023-02-11T05:06:18;98403.53;;;-0.86;84.19
14689;BME280;7432;48.728;9.154;2023-02-11T05:08:45;98401.88;;;-0.87;84.16
14689;BME280;7432;48.728;9.154;2023-02-11T05:11:15;98395.22;;;-0.90;84.38
14689;BME280;7432;48.728;9.154;2023-02-11T05:13:42;98388.22;;;-0.82;83.56
14689;BME280;7432;48.728;9.154;2023-02-11T05:16:08;98392.88;;;-0.68;82.98
14689;BME280;7432;48.728;9.154;2023-02-11T05:18:38;98390.44;;;-0.70;83.20
14689;BME280;7432;48.728;9.154;2023-02-11T05:21:05;98389.34;;;-0.63;82.80
14689;BME280;7432;48.728;9.154;2023-02-11T05:23:32;98381.78;;;-0.63;83.09
14689;BME280;7432;48.728;9.154;2023-02-11T05:25:59;98369.09;;;-0.61;82.62
14689;BME280;7432;48.728;9.154;2023-02-11T05:28:26;98363.34;;;-0.66;82.12
14689;BME280;7432;48.728;9.154;2023-02-11T05:30:52;98353.78;;;-0.56;82.01
14689;BME280;7432;48.728;9.154;2023-02-11T05:33:19;98343.72;;;-0.58;81.79
14689;BME280;7432;48.728;9.154;2023-02-11T05:35:46;98339.50;;;-0.59;81.64
14689;BME280;7432;48.728;9.154;2023-02-11T05:38:13;98338.41;;;-0.50;81.22
14689;BME280;7432;48.728;9.154;2023-02-11T05:40:40;98349.53;;;-0.56;81.25
14689;BME280;7432;48.728;9.154;2023-02-11T05:43:06;98354.03;;;-0.66;81.11
14689;BME280;7432;48.728;9.154;2023-02-11T05:45:33;98347.28;;;-0.65;80.99
14689;BME280;7432;48.728;9.154;2023-02-11T05:47:59;98352.94;;;-0.57;81.21
14689;BME280;7432;48.728;9.154;2023-02-11T05:50:26;98334.53;;;-0.62;81.52
14689;BME280;7432;48.728;9.154;2023-02-11T05:52:53;98341.38;;;-0.64;81.69
14689;BME280;7432;48.728;9.154;2023-02-11T05:55:20;98351.47;;;-0.64;81.61
14689;BME280;7432;48.728;9.154;2023-02-11T05:57:46;98348.97;;;-0.66;82.47
14689;BME280;7432;48.728;9.154;2023-02-11T06:00:13;98348.88;;;-0.63;82.13
14689;BME280;7432;48.728;9.154;2023-02-11T06:02:40;98344.56;;;-0.59;82.38
14689;BME280;7432;48.728;9.154;2023-02-11T06:05:07;98342.78;;;-0.55;81.95
14689;BME280;7432;48.728;9.154;2023-02-11T06:07:34;98352.56;;;-0.45;82.13
14689;BME280;7432;48.728;9.154;2023-02-11T06:10:02;98345.00;;;-0.45;82.34
14689;BME280;7432;48.728;9.154;2023-02-11T06:12:28;98340.69;;;-0.43;82.31
14689;BME280;7432;48.728;9.154;2023-02-11T06:14:54;98350.00;;;-0.43;82.15
14689;BME280;7432;48.728;9.154;2023-02-11T06:17:21;98368.19;;;-0.32;82.39
14689;BME280;7432;48.728;9.154;2023-02-11T06:19:49;98368.59;;;-0.44;82.98
14689;BME280;7432;48.728;9.154;2023-02-11T06:22:16;98369.28;;;-0.39;82.71
14689;BME280;7432;48.728;9.154;2023-02-11T06:24:42;98368.19;;;-0.32;82.53
14689;BME280;7432;48.728;9.154;2023-02-11T06:27:10;98369.03;;;-0.32;82.27
14689;BME280;7432;48.728;9.154;2023-02-11T06:29:36;98354.00;;;-0.36;82.57
14689;BME280;7432;48.728;9.154;2023-02-11T06:32:03;98360.66;;;-0.34;82.79
14689;BME280;7432;48.728;9.154;2023-02-11T06:34:29;98369.03;;;-0.32;83.08
14689;BME280;7432;48.728;9.154;2023-02-11T06:36:55;98361.53;;;-0.35;82.97
14689;BME280;7432;48.728;9.154;2023-02-11T06:39:22;98355.47;;;-0.29;83.01
14689;BME280;7432;48.728;9.154;2023-02-11T06:41:48;98353.50;;;-0.21;82.71
14689;BME280;7432;48.728;9.154;2023-02-11T06:44:16;98361.78;;;-0.16;82.27
14689;BME280;7432;48.728;9.154;2023-02-11T06:46:42;98364.13;;;-0.10;81.73
14689;BME280;7432;48.728;9.154;2023-02-11T06:49:09;98364.22;;;-0.13;82.16
14689;BME280;7432;48.728;9.154;2023-02-11T06:51:35;98356.72;;;-0.16;81.67
14689;BME280;7432;48.728;9.154;2023-02-11T06:54:04;98369.97;;;-0.08;80.98
14689;BME280;7432;48.728;9.154;2023-02-11T06:56:31;98371.78;;;-0.12;81.16
14689;BME280;7432;48.728;9.154;2023-02-11T06:58:57;98377.28;;;0.01;81.40
14689;BME280;7432;48.728;9.154;2023-02-11T07:01:26;98382.31;;;0.03;81.69
14689;BME280;7432;48.728;9.154;2023-02-11T07:03:53;98387.22;;;0.07;81.44
14689;BME280;7432;48.728;9.154;2023-02-11T07:06:22;98392.38;;;0.04;81.19
14689;BME280;7432;48.728;9.154;2023-02-11T07:08:51;98396.66;;;0.02;81.66
14689;BME280;7432;48.728;9.154;2023-02-11T07:11:19;98398.78;;;0.14;81.78
14689;BME280;7432;48.728;9.154;2023-02-11T07:13:49;98377.72;;;0.14;81.66
14689;BME280;7432;48.728;9.154;2023-02-11T07:16:16;98388.53;;;0.19;81.03
14689;BME280;7432;48.728;9.154;2023-02-11T07:18:45;98378.97;;;0.27;81.19
14689;BME280;7432;48.728;9.154;2023-02-11T07:21:14;98377.22;;;0.29;80.73
14689;BME280;7432;48.728;9.154;2023-02-11T07:23:41;98384.41;;;0.41;81.48
14689;BME280;7432;48.728;9.154;2023-02-11T07:26:10;98379.28;;;0.42;81.53
14689;BME280;7432;48.728;9.154;2023-02-11T07:28:38;98378.09;;;0.52;81.73
14689;BME280;7432;48.728;9.154;2023-02-11T07:31:06;98383.81;;;0.57;81.65
14689;BME280;7432;48.728;9.154;2023-02-11T07:33:33;98374.22;;;0.67;80.85
14689;BME280;7432;48.728;9.154;2023-02-11T07:36:01;98368.00;;;0.76;80.33
14689;BME280;7432;48.728;9.154;2023-02-11T07:38:28;98374.22;;;0.90;80.36
14689;BME280;7432;48.728;9.154;2023-02-11T07:40:58;98385.50;;;1.06;79.59
14689;BME280;7432;48.728;9.154;2023-02-11T07:43:25;98400.50;;;1.34;79.28
14689;BME280;7432;48.728;9.154;2023-02-11T07:45:51;98393.00;;;1.54;78.53
14689;BME280;7432;48.728;9.154;2023-02-11T07:48:17;98400.03;;;1.91;77.94
14689;BME280;7432;48.728;9.154;2023-02-11T07:50:44;98395.50;;;2.19;76.73
14689;BME280;7432;48.728;9.154;2023-02-11T07:53:12;98388.91;;;2.35;75.57
14689;BME280;7432;48.728;9.154;2023-02-11T07:55:38;98388.34;;;2.49;74.44
14689;BME280;7432;48.728;9.154;2023-02-11T07:58:04;98370.78;;;3.02;74.16
14689;BME280;7432;48.728;9.154;2023-02-11T08:00:31;98385.97;;;4.14;69.45
14689;BME280;7432;48.728;9.154;2023-02-11T08:02:57;98374.31;;;4.43;66.77
14689;BME280;7432;48.728;9.154;2023-02-11T08:05:23;98383.78;;;4.24;66.46
14689;BME280;7432;48.728;9.154;2023-02-11T08:07:51;98381.59;;;3.99;66.86
14689;BME280;7432;48.728;9.154;2023-02-11T08:10:19;98370.13;;;3.72;67.50
14689;BME280;7432;48.728;9.154;2023-02-11T08:12:46;98370.31;;;3.50;68.24
14689;BME280;7432;48.728;9.154;2023-02-11T08:15:13;98367.50;;;3.37;69.15
14689;BME280;7432;48.728;9.154;2023-02-11T08:17:39;98367.72;;;3.33;68.70
14689;BME280;7432;48.728;9.154;2023-02-11T08:20:06;98370.75;;;3.41;69.80
14689;BME280;7432;48.728;9.154;2023-02-11T08:22:32;98366.13;;;3.49;69.89
14689;BME280;7432;48.728;9.154;2023-02-11T08:24:59;98353.78;;;3.58;68.88
14689;BME280;7432;48.728;9.154;2023-02-11T08:27:27;98357.25;;;3.75;68.96
14689;BME280;7432;48.728;9.154;2023-02-11T08:29:54;98375.72;;;3.97;68.32
14689;BME280;7432;48.728;9.154;2023-02-11T08:32:21;98370.56;;;4.15;68.01
14689;BME280;7432;48.728;9.154;2023-02-11T08:34:50;98385.44;;;4.42;67.08
14689;BME280;7432;48.728;9.154;2023-02-11T08:37:16;98382.94;;;4.57;65.83
14689;BME280;7432;48.728;9.154;2023-02-11T08:39:43;98381.72;;;4.82;65.21
14689;BME280;7432;48.728;9.154;2023-02-11T08:42:11;98387.31;;;5.05;64.28
14689;BME280;7432;48.728;9.154;2023-02-11T08:44:41;98392.84;;;5.29;63.33
14689;BME280;7432;48.728;9.154;2023-02-11T08:47:07;98395.75;;;5.38;62.59
14689;BME280;7432;48.728;9.154;2023-02-11T08:49:34;98386.59;;;5.34;62.10
14689;BME280;7432;48.728;9.154;2023-02-11T08:52:00;98369.78;;;5.62;62.52
14689;BME280;7432;48.728;9.154;2023-02-11T08:54:28;98384.84;;;8.75;55.67
14689;BME280;7432;48.728;9.154;2023-02-11T08:56:56;98380.47;;;11.14;45.97
14689;BME280;7432;48.728;9.154;2023-02-11T08:59:23;98387.56;;;14.42;40.93
14689;BME280;7432;48.728;9.154;2023-02-11T09:01:51;98386.84;;;16.41;36.74
14689;BME280;7432;48.728;9.154;2023-02-11T09:04:18;98377.19;;;16.69;34.51
14689;BME280;7432;48.728;9.154;2023-02-11T09:06:44;98380.78;;;15.88;35.89
14689;BME280;7432;48.728;9.154;2023-02-11T09:09:12;98385.53;;;14.45;38.22
14689;BME280;7432;48.728;9.154;2023-02-11T09:11:39;98378.56;;;12.35;41.38
14689;BME280;7432;48.728;9.154;2023-02-11T09:14:06;98386.91;;;10.52;45.04
14689;BME280;7432;48.728;9.154;2023-02-11T09:16:35;98392.19;;;9.43;48.31
14689;BME280;7432;48.728;9.154;2023-02-11T09:19:04;98378.88;;;8.75;49.91
14689;BME280;7432;48.728;9.154;2023-02-11T09:21:30;98386.47;;;8.24;50.74
14689;BME280;7432;48.728;9.154;2023-02-11T09:23:56;98378.22;;;7.80;52.70
14689;BME280;7432;48.728;9.154;2023-02-11T09:26:24;98384.91;;;7.42;54.43
14689;BME280;7432;48.728;9.154;2023-02-11T09:28:51;98380.19;;;7.07;55.45
14689;BME280;7432;48.728;9.154;2023-02-11T09:31:19;98381.41;;;6.72;55.80
14689;BME280;7432;48.728;9.154;2023-02-11T09:33:47;98369.50;;;6.43;57.21
14689;BME280;7432;48.728;9.154;2023-02-11T09:36:17;98364.13;;;6.18;57.75
14689;BME280;7432;48.728;9.154;2023-02-11T09:38:45;98369.66;;;6.10;58.29
14689;BME280;7432;48.728;9.154;2023-02-11T09:41:30;98368.78;;;6.11;58.30
14689;BME280;7432;48.728;9.154;2023-02-11T09:44:01;98376.78;;;6.05;59.66
14689;BME280;7432;48.728;9.154;2023-02-11T09:46:31;98366.25;;;5.95;59.35
14689;BME280;7432;48.728;9.154;2023-02-11T09:48:59;98378.13;;;5.81;59.63
14689;BME280;7432;48.728;9.154;2023-02-11T09:51:33;98378.38;;;5.61;60.44
14689;BME280;7432;48.728;9.154;2023-02-11T09:54:06;98378.38;;;5.61;60.79
14689;BME280;7432;48.728;9.154;2023-02-11T09:56:37;98377.38;;;5.63;60.73
14689;BME280;7432;48.728;9.154;2023-02-11T09:59:04;98384.97;;;5.65;61.70
14689;BME280;7432;48.728;9.154;2023-02-11T10:01:36;98377.63;;;5.74;61.38
14689;BME280;7432;48.728;9.154;2023-02-11T10:04:06;98385.13;;;5.77;61.27
14689;BME280;7432;48.728;9.154;2023-02-11T10:06:42;98374.00;;;5.94;60.67
14689;BME280;7432;48.728;9.154;2023-02-11T10:09:20;98381.03;;;6.20;60.17
14689;BME280;7432;48.728;9.154;2023-02-11T10:11:57;98387.97;;;6.48;59.88
14689;BME280;7432;48.728;9.154;2023-02-11T10:14:48;98394.38;;;6.55;58.97
14689;BME280;7432;48.728;9.154;2023-02-11T10:17:23;98387.88;;;6.49;59.17
14689;BME280;7432;48.728;9.154;2023-02-11T10:20:02;98386.88;;;6.52;59.30
14689;BME280;7432;48.728;9.154;2023-02-11T10:22:37;98387.91;;;6.34;59.93
14689;BME280;7432;48.728;9.154;2023-02-11T10:25:17;98385.34;;;6.20;60.44
14689;BME280;7432;48.728;9.154;2023-02-11T10:27:45;98375.22;;;6.03;60.15
14689;BME280;7432;48.728;9.154;2023-02-11T10:30:18;98385.78;;;5.96;60.86
14689;BME280;7432;48.728;9.154;2023-02-11T10:32:48;98394.53;;;5.92;61.56
14689;BME280;7432;48.728;9.154;2023-02-11T10:35:19;98391.41;;;5.87;61.92
14689;BME280;7432;48.728;9.154;2023-02-11T10:37:48;98392.16;;;5.89;61.51
14689;BME280;7432;48.728;9.154;2023-02-11T10:40:17;98390.66;;;5.85;62.17
14689;BME280;7432;48.728;9.154;2023-02-11T10:42:47;98389.75;;;5.86;62.23
14689;BME280;7432;48.728;9.154;2023-02-11T10:45:17;98393.47;;;5.96;62.29
14689;BME280;7432;48.728;9.154;2023-02-11T10:47:44;98369.38;;;6.01;62.09
14689;BME280;7432;48.728;9.154;2023-02-11T10:50:20;98386.13;;;6.06;62.50
14689;BME280;7432;48.728;9.154;2023-02-11T10:52:48;98366.06;;;6.14;61.40
14689;BME280;7432;48.728;9.154;2023-02-11T10:55:16;98356.97;;;6.09;61.46
14689;BME280;7432;48.728;9.154;2023-02-11T10:57:50;98357.03;;;6.23;61.71
14689;BME280;7432;48.728;9.154;2023-02-11T11:00:33;98350.91;;;6.25;61.85
14689;BME280;7432;48.728;9.154;2023-02-11T11:03:03;98355.44;;;6.20;61.59
14689;BME280;7432;48.728;9.154;2023-02-11T11:05:32;98346.97;;;6.20;62.20
14689;BME280;7432;48.728;9.154;2023-02-11T11:08:03;98334.53;;;6.14;62.92
14689;BME280;7432;48.728;9.154;2023-02-11T11:10:36;98336.09;;;6.16;62.73
14689;BME280;7432;48.728;9.154;2023-02-11T11:13:23;98338.25;;;6.08;61.49
14689;BME280;7432;48.728;9.154;2023-02-11T11:16:06;98333.97;;;6.09;62.76
14689;BME280;7432;48.728;9.154;2023-02-11T11:18:33;98324.19;;;6.15;62.67
14689;BME280;7432;48.728;9.154;2023-02-11T11:21:02;98333.44;;;6.18;62.36
14689;BME280;7432;48.728;9.154;2023-02-11T11:23:31;98327.03;;;6.11;62.19
14689;BME280;7432;48.728;9.154;2023-02-11T11:26:03;98335.97;;;6.18;63.12
14689;BME280;7432;48.728;9.154;2023-02-11T11:28:35;98338.63;;;6.16;62.11
14689;BME280;7432;48.728;9.154;2023-02-11T11:31:11;98339.31;;;6.20;62.89
14689;BME280;7432;48.728;9.154;2023-02-11T11:33:41;98333.56;;;6.30;62.40
14689;BME280;7432;48.728;9.154;2023-02-11T11:36:10;98327.91;;;6.39;61.74
14689;BME280;7432;48.728;9.154;2023-02-11T11:38:43;98332.84;;;6.28;62.01
14689;BME280;7432;48.728;9.154;2023-02-11T11:41:14;98339.47;;;6.17;62.42
14689;BME280;7432;48.728;9.154;2023-02-11T11:43:53;98335.53;;;6.11;63.24
14689;BME280;7432;48.728;9.154;2023-02-11T11:46:23;98328.50;;;6.15;62.18
14689;BME280;7432;48.728;9.154;2023-02-11T11:48:50;98320.00;;;6.14;62.45
14689;BME280;7432;48.728;9.154;2023-02-11T11:51:23;98296.34;;;6.11;63.03
14689;BME280;7432;48.728;9.154;2023-02-11T11:53:56;98315.19;;;6.24;63.07
14689;BME280;7432;48.728;9.154;2023-02-11T11:56:25;98315.56;;;6.32;62.30
14689;BME280;7432;48.728;9.154;2023-02-11T11:58:53;98320.31;;;6.38;62.53
14689;BME280;7432;48.728;9.154;2023-02-11T12:01:29;98320.53;;;6.49;61.86
14689;BME280;7432;48.728;9.154;2023-02-11T12:06:50;98319.25;;;6.84;60.83
14689;BME280;7432;48.728;9.154;2023-02-11T12:09:25;98310.56;;;7.15;59.81
14689;BME280;7432;48.728;9.154;2023-02-11T12:12:05;98321.47;;;7.45;58.68
14689;BME280;7432;48.728;9.154;2023-02-11T12:14:42;98314.78;;;7.43;58.36
14689;BME280;7432;48.728;9.154;2023-02-11T12:17:21;98313.66;;;7.47;58.92
14689;BME280;7432;48.728;9.154;2023-02-11T12:20:01;98312.28;;;7.55;57.74
14689;BME280;7432;48.728;9.154;2023-02-11T12:22:42;98315.19;;;7.63;56.48
14689;BME280;7432;48.728;9.154;2023-02-11T12:25:26;98315.91;;;7.65;56.46
14689;BME280;7432;48.728;9.154;2023-02-11T12:28:02;98319.34;;;7.79;56.66
14689;BME280;7432;48.728;9.154;2023-02-11T12:30:44;98317.31;;;7.84;56.94
14689;BME280;7432;48.728;9.154;2023-02-11T12:33:24;98317.59;;;7.79;57.01
14689;BME280;7432;48.728;9.154;2023-02-11T12:35:59;98311.75;;;7.90;57.13
14689;BME280;7432;48.728;9.154;2023-02-11T12:38:34;98324.66;;;8.15;56.66
14689;BME280;7432;48.728;9.154;2023-02-11T12:41:19;98332.22;;;8.43;54.68
14689;BME280;7432;48.728;9.154;2023-02-11T12:44:17;98329.06;;;8.52;55.10
14689;BME280;7432;48.728;9.154;2023-02-11T12:46:49;98316.94;;;8.67;54.26
14689;BME280;7432;48.728;9.154;2023-02-11T12:49:32;98329.88;;;8.65;54.94
14689;BME280;7432;48.728;9.154;2023-02-11T12:52:13;98325.75;;;8.50;55.91
14689;BME280;7432;48.728;9.154;2023-02-11T12:54:48;98324.53;;;8.56;55.41
14689;BME280;7432;48.728;9.154;2023-02-11T12:57:21;98324.94;;;8.37;56.40
14689;BME280;7432;48.728;9.154;2023-02-11T12:59:54;98318.88;;;8.38;56.86
14689;BME280;7432;48.728;9.154;2023-02-11T13:02:34;98320.94;;;8.46;56.59
14689;BME280;7432;48.728;9.154;2023-02-11T13:05:04;98325.03;;;8.36;56.64
14689;BME280;7432;48.728;9.154;2023-02-11T13:07:38;98310.78;;;8.05;58.50
14689;BME280;7432;48.728;9.154;2023-02-11T13:10:24;98302.59;;;8.12;58.45
14689;BME280;7432;48.728;9.154;2023-02-11T13:12:53;98307.00;;;7.98;59.19
14689;BME280;7432;48.728;9.154;2023-02-11T13:15:39;98285.91;;;7.93;59.74
14689;BME280;7432;48.728;9.154;2023-02-11T13:18:16;98298.41;;;8.11;59.58
14689;BME280;7432;48.728;9.154;2023-02-11T13:20:50;98296.75;;;8.10;60.39
14689;BME280;7432;48.728;9.154;2023-02-11T13:23:23;98304.13;;;8.15;59.99
14689;BME280;7432;48.728;9.154;2023-02-11T13:25:56;98290.19;;;8.19;59.65
14689;BME280;7432;48.728;9.154;2023-02-11T13:28:34;98282.53;;;8.31;59.60
14689;BME280;7432;48.728;9.154;2023-02-11T13:31:04;98292.28;;;8.39;59.08
14689;BME280;7432;48.728;9.154;2023-02-11T13:33:34;98289.50;;;8.42;59.06